createdAt,value
2018-06-08T00:01:05.417Z,21.69
2018-06-08T00:06:57.273Z,21.70
2018-06-08T00:09:48.259Z,21.42
2018-06-08T00:12:42.065Z,21.35
2018-06-08T00:15:32.953Z,21.36
2018-06-08T00:18:18.932Z,21.57
2018-06-08T00:21:12.514Z,21.73
2018-06-08T00:23:59.267Z,21.68
2018-06-08T00:26:58.089Z,21.59
2018-06-08T00:29:46.852Z,21.44
2018-06-08T00:32:24.395Z,21.29
2018-06-08T00:34:54.272Z,21.43
2018-06-08T00:37:24.468Z,21.13
2018-06-08T00:42:29.198Z,21.05
2018-06-08T00:44:58.712Z,21.18
2018-06-08T00:47:28.365Z,21.04
2018-06-08T00:49:58.071Z,20.60
2018-06-08T00:52:28.175Z,20.37
2018-06-08T00:54:57.570Z,20.50
2018-06-08T00:57:28.539Z,20.91
2018-06-08T00:59:58.181Z,21.02
2018-06-08T01:02:27.953Z,21.19
2018-06-08T01:04:57.776Z,21.25
2018-06-08T01:07:27.620Z,21.25
2018-06-08T01:09:57.386Z,21.25
2018-06-08T01:12:27.562Z,21.24
2018-06-08T01:14:57.914Z,21.23
2018-06-08T01:17:28.739Z,21.13
2018-06-08T01:20:01.569Z,21.06
2018-06-08T01:22:31.202Z,21.04
2018-06-08T01:25:01.815Z,20.93
2018-06-08T01:27:31.653Z,20.96
2018-06-08T01:30:02.980Z,20.96
2018-06-08T01:32:32.878Z,21.06
2018-06-08T01:35:03.111Z,21.17
2018-06-08T01:37:32.988Z,21.07
2018-06-08T01:40:03.333Z,21.11
2018-06-08T01:42:33.001Z,20.98
2018-06-08T01:45:02.646Z,20.89
2018-06-08T01:47:32.486Z,20.88
2018-06-08T01:50:02.271Z,20.81
2018-06-08T01:52:32.133Z,21.17
2018-06-08T01:55:02.190Z,21.02
2018-06-08T01:57:31.918Z,20.92
2018-06-08T02:00:04.764Z,21.04
2018-06-08T02:02:35.388Z,20.94
2018-06-08T02:05:05.082Z,20.88
2018-06-08T02:07:35.276Z,20.81
2018-06-08T02:10:05.346Z,20.65
2018-06-08T02:12:35.562Z,20.69
2018-06-08T02:17:40.294Z,20.72
2018-06-08T02:20:10.172Z,20.84
2018-06-08T02:22:40.507Z,20.87
2018-06-08T02:25:10.287Z,20.85
2018-06-08T02:27:40.120Z,20.80
2018-06-08T02:30:10.035Z,20.70
2018-06-08T02:32:39.864Z,20.70
2018-06-08T02:35:09.560Z,20.74
2018-06-08T02:37:39.364Z,20.78
2018-06-08T02:40:09.037Z,20.75
2018-06-08T02:42:38.827Z,20.74
2018-06-08T02:45:08.677Z,20.59
2018-06-08T02:47:38.430Z,20.55
2018-06-08T02:50:08.314Z,20.53
2018-06-08T02:52:37.896Z,20.48
2018-06-08T02:55:07.632Z,20.44
2018-06-08T02:57:37.263Z,20.46
2018-06-08T03:00:07.910Z,20.50
2018-06-08T03:02:38.160Z,20.32
2018-06-08T03:07:43.106Z,20.45
2018-06-08T03:10:12.908Z,20.48
2018-06-08T03:12:42.725Z,20.25
2018-06-08T03:15:12.474Z,20.38
2018-06-08T03:17:42.278Z,20.23
2018-06-08T03:22:55.099Z,20.28
2018-06-08T03:25:29.501Z,20.24
2018-06-08T03:28:08.955Z,20.00
2018-06-08T03:30:50.021Z,19.91
2018-06-08T03:33:27.791Z,20.06
2018-06-08T03:36:13.319Z,20.19
2018-06-08T03:38:48.635Z,20.31
2018-06-08T03:41:25.140Z,20.35
2018-06-08T03:44:08.192Z,20.20
2018-06-08T03:46:46.720Z,20.41
2018-06-08T03:49:25.107Z,20.28
2018-06-08T03:52:05.314Z,20.34
2018-06-08T03:54:45.208Z,20.44
2018-06-08T03:57:25.413Z,20.33
2018-06-08T04:00:06.313Z,20.62
2018-06-08T04:02:44.090Z,21.05
2018-06-08T04:05:22.103Z,21.14
2018-06-08T04:07:58.832Z,21.34
2018-06-08T04:10:32.676Z,21.46
2018-06-08T04:13:09.018Z,21.58
2018-06-08T04:15:50.443Z,21.80
2018-06-08T04:18:35.023Z,21.78
2018-06-08T04:21:11.800Z,21.96
2018-06-08T04:23:50.773Z,21.88
2018-06-08T04:26:30.415Z,21.68
2018-06-08T04:29:09.287Z,21.91
2018-06-08T04:31:52.577Z,22.11
2018-06-08T04:34:31.908Z,22.12
2018-06-08T04:37:15.149Z,22.41
2018-06-08T04:39:48.044Z,22.48
2018-06-08T04:42:29.585Z,22.59
2018-06-08T04:45:06.076Z,22.43
2018-06-08T04:47:42.166Z,22.34
2018-06-08T04:50:19.072Z,22.75
2018-06-08T04:52:51.447Z,23.01
2018-06-08T04:55:30.962Z,23.11
2018-06-08T04:58:06.431Z,23.38
2018-06-08T05:00:40.937Z,23.65
2018-06-08T05:03:20.197Z,23.76
2018-06-08T05:05:54.029Z,23.80
2018-06-08T05:08:39.778Z,23.84
2018-06-08T05:11:18.836Z,24.07
2018-06-08T05:13:53.461Z,24.35
2018-06-08T05:16:35.165Z,24.48
2018-06-08T05:19:17.043Z,24.80
2018-06-08T05:21:53.823Z,24.69
2018-06-08T05:24:30.527Z,24.77
2018-06-08T05:27:07.557Z,25.02
2018-06-08T05:29:48.756Z,25.22
2018-06-08T05:32:22.240Z,25.60
2018-06-08T05:34:58.839Z,25.64
2018-06-08T05:37:37.122Z,25.68
2018-06-08T05:40:11.863Z,25.90
2018-06-08T05:42:46.686Z,25.98
2018-06-08T05:45:30.747Z,25.98
2018-06-08T05:48:15.415Z,26.33
2018-06-08T05:53:30.489Z,25.96
2018-06-08T05:56:06.403Z,26.24
2018-06-08T05:58:43.633Z,26.22
2018-06-08T06:01:22.391Z,26.35
2018-06-08T06:03:59.537Z,26.37
2018-06-08T06:06:32.727Z,26.18
2018-06-08T06:09:08.178Z,26.33
2018-06-08T06:11:47.031Z,26.68
2018-06-08T06:14:25.915Z,27.19
2018-06-08T06:17:05.740Z,27.25
2018-06-08T06:19:46.570Z,27.15
2018-06-08T06:22:27.311Z,26.84
2018-06-08T06:33:08.253Z,26.27
2018-06-08T06:35:52.237Z,26.49
2018-06-08T06:38:32.475Z,26.68
2018-06-08T06:41:06.817Z,26.63
2018-06-08T06:46:29.252Z,27.04
2018-06-08T06:49:08.031Z,27.20
2018-06-08T06:51:43.158Z,27.44
2018-06-08T06:54:24.979Z,27.60
2018-06-08T06:57:02.917Z,27.68
2018-06-08T06:59:42.970Z,28.12
2018-06-08T07:02:26.718Z,28.26
2018-06-08T07:05:06.528Z,27.86
2018-06-08T07:07:47.139Z,27.74
2018-06-08T07:10:23.620Z,27.81
2018-06-08T07:13:03.493Z,27.71
2018-06-08T07:15:44.816Z,27.53
2018-06-08T07:18:22.585Z,27.46
2018-06-08T07:21:04.792Z,27.41
2018-06-08T07:23:40.443Z,27.15
2018-06-08T07:26:17.888Z,27.15
2018-06-08T07:28:53.401Z,27.23
2018-06-08T07:31:31.281Z,27.53
2018-06-08T07:34:10.405Z,27.51
2018-06-08T07:36:48.440Z,27.74
2018-06-08T07:39:30.817Z,28.06
2018-06-08T07:42:05.096Z,27.93
2018-06-08T07:44:44.866Z,28.17
2018-06-08T07:47:27.159Z,28.31
2018-06-08T07:50:07.968Z,28.40
2018-06-08T07:52:50.103Z,28.36
2018-06-08T07:55:24.997Z,28.32
2018-06-08T07:58:07.729Z,28.32
2018-06-08T08:00:49.620Z,28.17
2018-06-08T08:03:24.924Z,28.12
2018-06-08T08:06:08.128Z,27.90
2018-06-08T08:08:48.719Z,27.65
2018-06-08T08:11:28.648Z,28.09
2018-06-08T08:14:12.011Z,28.63
2018-06-08T08:16:47.021Z,28.63
2018-06-08T08:19:30.281Z,28.99
2018-06-08T08:22:08.768Z,29.31
2018-06-08T08:24:42.852Z,29.59
2018-06-08T08:27:22.306Z,29.68
2018-06-08T08:30:10.837Z,29.55
2018-06-08T08:35:29.034Z,29.54
2018-06-08T08:38:03.108Z,29.69
2018-06-08T08:40:42.668Z,29.69
2018-06-08T08:43:19.335Z,30.00
2018-06-08T08:45:56.455Z,30.09
2018-06-08T08:48:37.054Z,29.83
2018-06-08T08:51:15.967Z,29.38
2018-06-08T08:53:52.995Z,29.36
2018-06-08T08:56:30.377Z,29.13
2018-06-08T08:59:08.180Z,29.00
2018-06-08T09:01:45.393Z,29.21
2018-06-08T09:04:20.789Z,29.55
2018-06-08T09:06:57.912Z,29.67
2018-06-08T09:09:37.945Z,29.73
2018-06-08T09:12:17.813Z,29.90
2018-06-08T09:14:53.788Z,30.07
2018-06-08T09:17:28.666Z,29.78
2018-06-08T09:20:04.801Z,30.15
2018-06-08T09:22:43.615Z,30.71
2018-06-08T09:25:24.654Z,30.98
2018-06-08T09:28:04.709Z,30.96
2018-06-08T09:30:41.573Z,30.39
2018-06-08T09:33:19.804Z,30.71
2018-06-08T09:35:59.604Z,31.31
2018-06-08T09:38:43.733Z,30.96
2018-06-08T09:41:21.515Z,30.67
2018-06-08T09:44:06.205Z,30.83
2018-06-08T09:46:48.537Z,31.23
2018-06-08T09:49:27.676Z,31.06
2018-06-08T09:52:05.196Z,30.77
2018-06-08T09:54:45.988Z,30.80
2018-06-08T09:57:26.239Z,30.98
2018-06-08T10:00:03.112Z,31.15
2018-06-08T10:02:51.308Z,31.82
2018-06-08T10:05:38.153Z,31.54
2018-06-08T10:08:20.656Z,31.53
2018-06-08T10:10:54.563Z,31.79
2018-06-08T10:13:30.249Z,31.56
2018-06-08T10:16:14.855Z,31.80
2018-06-08T10:18:57.480Z,32.32
2018-06-08T10:21:37.565Z,31.92
2018-06-08T10:24:18.686Z,31.45
2018-06-08T10:27:02.549Z,31.56
2018-06-08T10:29:36.162Z,32.32
2018-06-08T10:35:00.584Z,32.48
2018-06-08T10:37:37.583Z,32.51
2018-06-08T10:40:14.206Z,32.42
2018-06-08T10:42:53.134Z,32.59
2018-06-08T10:45:37.303Z,32.66
2018-06-08T10:48:15.440Z,32.82
2018-06-08T10:50:59.313Z,32.78
2018-06-08T10:53:35.043Z,32.81
2018-06-08T10:56:14.795Z,32.33
2018-06-08T10:58:50.772Z,32.71
2018-06-08T11:01:36.977Z,32.64
2018-06-08T11:04:15.816Z,33.01
2018-06-08T11:06:58.553Z,33.28
2018-06-08T11:09:37.790Z,32.44
2018-06-08T11:12:20.314Z,32.72
2018-06-08T11:14:56.911Z,33.10
2018-06-08T11:17:38.889Z,32.88
2018-06-08T11:20:15.255Z,32.76
2018-06-08T11:22:53.321Z,32.78
2018-06-08T11:25:29.402Z,32.65
2018-06-08T11:28:03.740Z,33.07
2018-06-08T11:30:41.321Z,32.75
2018-06-08T11:33:20.419Z,32.71
2018-06-08T11:36:01.013Z,33.22
2018-06-08T11:38:38.919Z,33.27
2018-06-08T11:41:18.901Z,33.52
2018-06-08T11:43:57.723Z,33.03
2018-06-08T11:46:34.497Z,32.79
2018-06-08T11:49:15.014Z,32.71
2018-06-08T11:51:57.189Z,32.91
2018-06-08T11:54:37.545Z,32.76
2018-06-08T11:57:24.282Z,33.06
2018-06-08T12:00:01.945Z,33.42
2018-06-08T12:02:39.331Z,33.05
2018-06-08T12:05:31.004Z,33.41
2018-06-08T12:08:14.050Z,33.90
2018-06-08T12:10:48.577Z,34.21
2018-06-08T12:13:30.435Z,34.14
2018-06-08T12:18:54.515Z,33.79
2018-06-08T12:21:32.714Z,33.95
2018-06-08T12:24:11.107Z,33.92
2018-06-08T12:26:45.961Z,34.10
2018-06-08T12:29:25.876Z,33.96
2018-06-08T12:32:06.620Z,34.22
2018-06-08T12:34:41.989Z,34.37
2018-06-08T12:37:16.800Z,34.46
2018-06-08T12:39:53.729Z,34.77
2018-06-08T12:45:19.189Z,33.90
2018-06-08T12:47:59.755Z,33.81
2018-06-08T12:50:39.938Z,33.63
2018-06-08T12:53:17.757Z,33.61
2018-06-08T12:55:55.434Z,33.90
2018-06-08T12:58:43.919Z,33.89
2018-06-08T13:01:22.706Z,33.66
2018-06-08T13:03:56.977Z,33.80
2018-06-08T13:06:32.867Z,33.64
2018-06-08T13:09:13.213Z,34.12
2018-06-08T13:11:50.510Z,34.26
2018-06-08T13:14:27.331Z,33.88
2018-06-08T13:17:03.635Z,34.39
2018-06-08T13:19:42.521Z,34.58
2018-06-08T13:22:16.623Z,34.13
2018-06-08T13:24:57.465Z,33.58
2018-06-08T13:27:37.947Z,33.68
2018-06-08T13:30:17.768Z,32.99
2018-06-08T13:32:53.813Z,32.00
2018-06-08T13:35:32.449Z,31.90
2018-06-08T13:38:14.119Z,32.13
2018-06-08T13:40:54.926Z,32.63
2018-06-08T13:43:39.147Z,32.42
2018-06-08T13:49:31.922Z,31.91
2018-06-08T13:52:15.220Z,32.96
2018-06-08T13:54:52.002Z,33.32
2018-06-08T13:57:32.464Z,33.65
2018-06-08T14:00:10.749Z,33.30
2018-06-08T14:02:52.008Z,33.65
2018-06-08T14:05:29.783Z,33.38
2018-06-08T14:08:15.528Z,32.76
2018-06-08T14:10:53.625Z,32.43
2018-06-08T14:13:36.366Z,32.39
2018-06-08T14:16:16.535Z,32.29
2018-06-08T14:18:54.204Z,32.06
2018-06-08T14:24:17.384Z,32.49
2018-06-08T14:26:55.960Z,33.07
2018-06-08T14:29:33.681Z,32.60
2018-06-08T14:32:13.669Z,32.61
2018-06-08T14:34:51.783Z,32.69
2018-06-08T14:37:33.776Z,32.57
2018-06-08T14:40:10.535Z,32.58
2018-06-08T14:42:46.108Z,32.74
2018-06-08T14:45:23.352Z,32.44
2018-06-08T14:48:00.432Z,31.98
2018-06-08T14:50:38.542Z,31.75
2018-06-08T14:53:12.908Z,31.62
2018-06-08T14:55:52.500Z,31.58
2018-06-08T14:58:36.182Z,31.26
2018-06-08T15:01:16.198Z,30.88
2018-06-08T15:04:02.795Z,30.90
2018-06-08T15:06:43.976Z,30.79
2018-06-08T15:09:18.100Z,30.72
2018-06-08T15:11:54.833Z,31.18
2018-06-08T15:14:34.870Z,31.42
2018-06-08T15:17:10.394Z,31.21
2018-06-08T15:19:49.432Z,31.08
2018-06-08T15:22:29.925Z,30.80
2018-06-08T15:25:10.394Z,30.88
2018-06-08T15:27:51.237Z,31.07
2018-06-08T15:30:28.703Z,31.07
2018-06-08T15:35:50.832Z,30.79
2018-06-08T15:38:31.747Z,30.68
2018-06-08T15:41:13.684Z,30.73
2018-06-08T15:43:55.141Z,31.02
2018-06-08T15:46:33.237Z,30.81
2018-06-08T15:49:10.379Z,30.45
2018-06-08T15:57:17.245Z,30.35
2018-06-08T15:59:59.557Z,30.35
2018-06-08T16:05:19.160Z,30.28
2018-06-08T16:07:54.393Z,30.13
2018-06-08T16:13:13.509Z,29.68
2018-06-08T16:15:46.738Z,29.53
2018-06-08T16:18:31.090Z,29.47
2018-06-08T16:21:05.708Z,29.54
2018-06-08T16:23:42.291Z,29.69
2018-06-08T16:26:19.638Z,29.55
2018-06-08T16:28:56.978Z,29.36
2018-06-08T16:31:37.145Z,29.53
2018-06-08T16:34:16.862Z,29.58
2018-06-08T16:37:01.823Z,29.69
2018-06-08T16:39:38.695Z,29.59
2018-06-08T16:42:16.951Z,29.60
2018-06-08T16:45:00.977Z,29.72
2018-06-08T16:47:39.468Z,29.43
2018-06-08T16:50:18.914Z,29.09
2018-06-08T16:52:57.880Z,28.79
2018-06-08T16:55:37.004Z,28.72
2018-06-08T16:58:16.502Z,28.85
2018-06-08T17:01:01.734Z,28.79
2018-06-08T17:03:43.357Z,28.48
2018-06-08T17:06:24.559Z,28.05
2018-06-08T17:11:57.915Z,28.12
2018-06-08T17:14:33.725Z,28.11
2018-06-08T17:17:18.823Z,28.37
2018-06-08T17:19:57.263Z,28.62
2018-06-08T17:22:37.753Z,28.54
2018-06-08T17:25:19.476Z,28.37
2018-06-08T17:28:09.335Z,28.13
2018-06-08T17:30:44.831Z,28.17
2018-06-08T17:33:19.930Z,28.14
2018-06-08T17:35:58.439Z,27.90
2018-06-08T17:38:37.938Z,27.47
2018-06-08T17:41:21.004Z,27.13
2018-06-08T17:44:00.635Z,27.01
2018-06-08T17:46:50.799Z,26.76
2018-06-08T17:49:38.717Z,26.80
2018-06-08T17:52:17.349Z,26.98
2018-06-08T17:54:58.920Z,27.17
2018-06-08T17:57:43.400Z,27.10
2018-06-08T18:00:19.856Z,26.67
2018-06-08T18:05:59.657Z,26.08
2018-06-08T18:08:44.112Z,26.23
2018-06-08T18:14:28.452Z,25.55
2018-06-08T18:20:09.163Z,25.66
2018-06-08T18:28:50.658Z,25.20
2018-06-08T18:31:34.190Z,25.58
2018-06-08T18:34:21.832Z,25.93
2018-06-08T18:37:03.308Z,26.11
2018-06-08T18:39:53.985Z,26.08
2018-06-08T18:45:23.814Z,25.41
2018-06-08T18:48:05.618Z,25.32
2018-06-08T18:50:53.575Z,25.49
2018-06-08T18:53:42.146Z,25.70
2018-06-08T18:56:24.944Z,25.87
2018-06-08T18:59:21.869Z,25.92
2018-06-08T19:02:14.756Z,25.64
2018-06-08T19:04:58.101Z,25.61
2018-06-08T19:07:47.566Z,25.47
2018-06-08T19:13:27.423Z,25.80
2018-06-08T19:16:18.417Z,25.75
2018-06-08T19:19:08.364Z,25.78
2018-06-08T19:24:45.609Z,25.42
2018-06-08T19:27:37.329Z,25.21
2018-06-08T19:30:19.561Z,24.33
2018-06-08T19:33:08.266Z,23.99
2018-06-08T19:35:58.968Z,24.13
2018-06-08T19:38:43.761Z,24.05
2018-06-08T19:41:29.692Z,23.67
2018-06-08T19:44:12.063Z,23.91
2018-06-08T19:46:57.932Z,24.20
2018-06-08T19:49:51.471Z,24.72
2018-06-08T19:52:32.886Z,24.70
2018-06-08T19:55:15.434Z,24.52
2018-06-08T19:57:56.311Z,24.39
2018-06-08T20:00:44.418Z,24.37
2018-06-08T20:03:24.262Z,24.18
2018-06-08T20:06:00.799Z,24.08
2018-06-08T20:08:42.228Z,24.02
2018-06-08T20:11:27.816Z,23.91
2018-06-08T20:14:13.604Z,23.90
2018-06-08T20:16:54.305Z,24.11
2018-06-08T20:19:38.517Z,24.11
2018-06-08T20:25:13.645Z,23.97
2018-06-08T20:27:55.146Z,24.21
2018-06-08T20:30:37.600Z,24.13
2018-06-08T20:33:30.333Z,24.28
2018-06-08T20:36:08.442Z,24.00
2018-06-08T20:41:40.748Z,23.12
2018-06-08T20:47:14.680Z,23.20
2018-06-08T20:50:01.931Z,23.45
2018-06-08T20:52:42.078Z,23.60
2018-06-08T20:55:25.545Z,23.77
2018-06-08T20:58:08.248Z,24.17
2018-06-08T21:00:49.244Z,24.07
2018-06-08T21:03:33.363Z,23.65
2018-06-08T21:14:42.562Z,23.29
2018-06-08T21:20:09.157Z,23.40
2018-06-08T21:22:58.851Z,23.18
2018-06-08T21:25:40.339Z,23.16
2018-06-08T21:28:25.697Z,23.27
2018-06-08T21:31:07.276Z,23.32
2018-06-08T21:33:52.883Z,23.20
2018-06-08T21:36:36.307Z,23.71
2018-06-08T21:39:23.881Z,23.82
2018-06-08T21:42:09.181Z,24.07
2018-06-08T21:44:58.882Z,23.31
2018-06-08T21:47:44.967Z,22.58
2018-06-08T21:50:23.696Z,22.64
2018-06-08T21:53:12.075Z,22.56
2018-06-08T21:55:58.114Z,23.01
2018-06-08T21:58:41.707Z,23.17
2018-06-08T22:01:28.591Z,23.12
2018-06-08T22:04:10.544Z,22.87
2018-06-08T22:06:52.935Z,23.00
2018-06-08T22:09:37.672Z,22.77
2018-06-08T22:12:21.585Z,22.73
2018-06-08T22:17:45.528Z,22.71
2018-06-08T22:20:24.713Z,22.51
2018-06-08T22:23:12.088Z,22.32
2018-06-08T22:25:55.141Z,22.53
2018-06-08T22:28:39.301Z,22.82
2018-06-08T22:31:23.078Z,23.14
2018-06-08T22:34:02.257Z,23.02
2018-06-08T22:39:39.389Z,23.08
2018-06-08T22:42:23.902Z,23.35
2018-06-08T22:45:04.315Z,23.52
2018-06-08T22:47:52.100Z,23.74
2018-06-08T22:50:33.018Z,23.61
2018-06-08T22:53:16.870Z,23.86
2018-06-08T22:55:56.674Z,23.99
2018-06-08T22:58:41.132Z,24.10
2018-06-08T23:01:20.001Z,23.93
2018-06-08T23:04:07.354Z,23.72
2018-06-08T23:09:42.537Z,23.55
2018-06-08T23:12:26.229Z,23.83
2018-06-08T23:15:12.661Z,24.04
2018-06-08T23:20:50.961Z,23.79
2018-06-08T23:23:44.570Z,23.70
2018-06-08T23:29:13.262Z,23.39
2018-06-08T23:32:06.611Z,23.33
2018-06-08T23:34:55.591Z,22.87
2018-06-08T23:40:32.212Z,23.13
2018-06-08T23:43:21.617Z,23.13
2018-06-08T23:46:02.244Z,22.81
2018-06-08T23:48:47.027Z,22.81
2018-06-08T23:51:27.870Z,22.94
2018-06-08T23:54:17.196Z,22.50
2018-06-08T23:57:04.994Z,22.33
2018-06-08T23:59:51.733Z,22.49
